Time;durP1;ratioP1;P1;durP2;ratioP2;P2;SDS_P1;SDS_P2;PMS_P1;PMS_P2;Temp;Humidity;BMP_temperature;BMP_pressure;BME280_temperature;BME280_humidity;BME280_pressure;Samples;Min_cycle;Max_cycle;Signal;HPM_P1;HPM_P2
2022/09/10 00:01:13;;;;;;;;;;;;;;;21.86;100.00;98409.59;5072051;28;19943;-40
2022/09/10 00:03:38;;;;;;;;;;;;;;;21.58;100.00;98411.19;5071731;28;19920;-40
2022/09/10 00:06:03;;;;;;;;;;;;;;;21.68;100.00;98417.28;5072125;28;19930;-40
2022/09/10 00:08:30;;;;;;;;;;;;;;;20.99;100.00;98423.16;5070626;28;20502;-40
2022/09/10 00:10:56;;;;;;;;;;;;;;;21.09;100.00;98408.34;5073563;28;20918;-40
2022/09/10 00:13:22;;;;;;;;;;;;;;;21.51;100.00;98408.28;5070995;28;19943;-40
2022/09/10 00:15:48;;;;;;;;;;;;;;;21.54;100.00;98407.19;5073016;28;20666;-40
2022/09/10 00:18:14;;;;;;;;;;;;;;;21.18;100.00;98401.50;5052039;28;20007;-40
2022/09/10 00:20:43;;;;;;;;;;;;;;;20.64;100.00;98409.47;5073067;28;19920;-40
2022/09/10 00:23:09;;;;;;;;;;;;;;;21.45;100.00;98400.94;5071704;28;20313;-40
2022/09/10 00:25:34;;;;;;;;;;;;;;;22.03;100.00;98382.72;5071986;28;19925;-45
2022/09/10 00:27:59;;;;;;;;;;;;;;;22.12;100.00;98392.41;5072514;28;20994;-41
2022/09/10 00:30:25;;;;;;;;;;;;;;;22.07;100.00;98394.59;5070856;28;19925;-41
2022/09/10 00:32:51;;;;;;;;;;;;;;;21.21;100.00;98393.34;5071787;28;19916;-40
2022/09/10 00:35:18;;;;;;;;;;;;;;;20.86;100.00;98397.19;5070997;28;20476;-40
2022/09/10 00:37:43;;;;;;;;;;;;;;;21.40;100.00;98393.47;5071596;28;20581;-40
2022/09/10 00:40:10;;;;;;;;;;;;;;;20.60;100.00;98402.00;5069408;28;19920;-40
2022/09/10 00:42:35;;;;;;;;;;;;;;;20.87;100.00;98394.44;5073396;28;19931;-41
2022/09/10 00:45:01;;;;;;;;;;;;;;;20.50;100.00;98391.41;5052553;28;20350;-40
2022/09/10 00:47:32;;;;;;;;;;;;;;;21.20;100.00;98383.84;5071286;28;20007;-40
2022/09/10 00:50:00;;;;;;;;;;;;;;;21.06;100.00;98382.41;5060660;28;19944;-40
2022/09/10 00:52:26;;;;;;;;;;;;;;;19.60;100.00;98400.34;5071088;28;20305;-40
2022/09/10 00:54:52;;;;;;;;;;;;;;;20.31;100.00;98389.50;5072272;28;19920;-40
2022/09/10 00:57:17;;;;;;;;;;;;;;;20.53;100.00;98385.13;5072172;28;19916;-40
2022/09/10 00:59:44;;;;;;;;;;;;;;;20.56;100.00;98390.09;5058034;28;19926;-40
2022/09/10 01:02:10;;;;;;;;;;;;;;;20.65;100.00;98390.19;5075699;28;19924;-40
2022/09/10 01:04:37;;;;;;;;;;;;;;;20.60;100.00;98402.00;5075124;28;19939;-40
2022/09/10 01:07:02;;;;;;;;;;;;;;;20.93;100.00;98389.66;5055835;28;19919;-40
2022/09/10 01:09:27;;;;;;;;;;;;;;;20.18;100.00;98401.91;5072630;28;19923;-46
2022/09/10 01:12:11;;;;;;;;;;;;;;;20.89;100.00;98391.69;5067910;28;19920;-40
2022/09/10 01:14:39;;;;;;;;;;;;;;;20.67;100.00;98390.88;5074789;28;19919;-40
2022/09/10 01:17:08;;;;;;;;;;;;;;;21.13;100.00;98390.59;5073386;28;20040;-40
2022/09/10 01:19:46;;;;;;;;;;;;;;;21.40;100.00;98392.63;5055989;28;20388;-40
2022/09/10 01:22:11;;;;;;;;;;;;;;;21.27;100.00;98390.22;5073169;28;19915;-40
2022/09/10 01:24:49;;;;;;;;;;;;;;;21.51;100.00;98397.81;5073032;28;19920;-40
2022/09/10 01:27:24;;;;;;;;;;;;;;;21.98;100.00;98391.97;5055686;28;20555;-40
2022/09/10 01:29:52;;;;;;;;;;;;;;;21.36;100.00;98396.47;5075339;28;19920;-40
2022/09/10 01:32:27;;;;;;;;;;;;;;;21.18;100.00;98397.06;5056306;28;19924;-40
2022/09/10 01:35:13;;;;;;;;;;;;;;;21.06;100.00;98403.38;5073660;28;20402;-40
2022/09/10 01:37:39;;;;;;;;;;;;;;;21.13;100.00;98401.88;5073007;28;20987;-41
2022/09/10 01:40:04;;;;;;;;;;;;;;;20.60;100.00;98409.84;5074622;28;20011;-40
2022/09/10 01:42:30;;;;;;;;;;;;;;;21.37;100.00;98400.72;5065626;28;19969;-40
2022/09/10 01:44:59;;;;;;;;;;;;;;;21.22;100.00;98389.81;5056087;28;20144;-40
2022/09/10 01:47:32;;;;;;;;;;;;;;;20.93;100.00;98400.13;5054025;28;20443;-40
2022/09/10 01:50:13;;;;;;;;;;;;;;;21.10;100.00;98404.78;5054069;28;19924;-40
2022/09/10 01:52:57;;;;;;;;;;;;;;;21.62;100.00;98395.06;5055074;28;19920;-40
2022/09/10 01:55:40;;;;;;;;;;;;;;;21.81;100.00;98401.31;5074604;28;19974;-40
2022/09/10 01:58:12;;;;;;;;;;;;;;;21.83;100.00;98397.59;5056343;28;19943;-40
2022/09/10 02:00:37;;;;;;;;;;;;;;;22.00;100.00;98392.66;5072956;28;20022;-40
2022/09/10 02:03:04;;;;;;;;;;;;;;;21.87;100.00;98393.75;5075235;28;19916;-40
2022/09/10 02:05:30;;;;;;;;;;;;;;;22.00;100.00;98393.47;5074612;28;19916;-40
2022/09/10 02:07:57;;;;;;;;;;;;;;;21.95;100.00;98397.47;5053593;28;19920;-40
2022/09/10 02:10:23;;;;;;;;;;;;;;;22.01;100.00;98394.28;5054810;28;20432;-40
2022/09/10 02:12:48;;;;;;;;;;;;;;;22.01;100.00;98400.38;5054260;28;19970;-40
2022/09/10 02:15:14;;;;;;;;;;;;;;;21.93;100.00;98395.00;5054226;28;19929;-40
2022/09/10 02:17:39;;;;;;;;;;;;;;;21.99;100.00;98391.84;5073815;28;20380;-40
2022/09/10 02:20:06;;;;;;;;;;;;;;;21.99;100.00;98397.06;5073111;28;20331;-40
2022/09/10 02:22:32;;;;;;;;;;;;;;;22.04;100.00;98391.41;5053444;28;20054;-40
2022/09/10 02:24:57;;;;;;;;;;;;;;;22.04;100.00;98392.25;5073354;28;20129;-40
2022/09/10 02:27:22;;;;;;;;;;;;;;;21.95;100.00;98400.09;5072747;28;20397;-40
2022/09/10 02:29:48;;;;;;;;;;;;;;;21.93;100.00;98395.81;5073972;28;20411;-40
2022/09/10 02:32:13;;;;;;;;;;;;;;;21.85;100.00;98392.19;5072855;28;19920;-40
2022/09/10 02:34:39;;;;;;;;;;;;;;;21.79;100.00;98395.38;5073276;28;19920;-40
2022/09/10 02:37:04;;;;;;;;;;;;;;;21.79;100.00;98390.13;5072085;28;19973;-40
2022/09/10 02:39:29;;;;;;;;;;;;;;;21.79;100.00;98390.13;5071911;28;19931;-40
2022/09/10 02:41:55;;;;;;;;;;;;;;;21.49;100.00;98400.53;5071255;28;20221;-40
2022/09/10 02:44:20;;;;;;;;;;;;;;;21.55;100.00;98386.06;5072241;28;19920;-40
2022/09/10 02:46:45;;;;;;;;;;;;;;;21.69;100.00;98390.94;5071655;28;20129;-40
2022/09/10 02:49:11;;;;;;;;;;;;;;;21.59;100.00;98390.09;5053529;28;19938;-40
2022/09/10 02:51:37;;;;;;;;;;;;;;;21.81;100.00;98380.34;5072900;28;19916;-40
2022/09/10 02:54:02;;;;;;;;;;;;;;;21.42;100.00;98382.88;5072197;28;19959;-40
2022/09/10 02:56:27;;;;;;;;;;;;;;;21.58;100.00;98383.19;5071572;28;20432;-40
2022/09/10 02:58:53;;;;;;;;;;;;;;;21.50;100.00;98390.88;5072795;28;19959;-41
2022/09/10 03:01:18;;;;;;;;;;;;;;;21.54;100.00;98386.22;5053688;28;20016;-41
2022/09/10 03:03:47;;;;;;;;;;;;;;;21.40;100.00;98383.00;5073295;28;20586;-41
2022/09/10 03:06:12;;;;;;;;;;;;;;;21.25;100.00;98384.28;5054173;28;19931;-40
2022/09/10 03:08:38;;;;;;;;;;;;;;;21.22;100.00;98382.75;5071643;28;19920;-40
2022/09/10 03:11:03;;;;;;;;;;;;;;;21.19;100.00;98380.41;5072828;28;19954;-40
2022/09/10 03:13:29;;;;;;;;;;;;;;;21.03;100.00;98382.69;5070871;28;19966;-41
2022/09/10 03:15:54;;;;;;;;;;;;;;;21.01;100.00;98389.84;5071986;28;19919;-41
2022/09/10 03:18:21;;;;;;;;;;;;;;;21.05;100.00;98388.59;5072076;28;19927;-41
2022/09/10 03:20:46;;;;;;;;;;;;;;;21.18;100.00;98385.78;5072348;28;19984;-40
2022/09/10 03:23:12;;;;;;;;;;;;;;;21.54;100.00;98394.91;5071564;28;19923;-40
2022/09/10 03:25:37;;;;;;;;;;;;;;;21.05;100.00;98388.59;5071677;28;20416;-40
2022/09/10 03:28:02;;;;;;;;;;;;;;;21.35;100.00;98384.31;5073334;28;20287;-40
2022/09/10 03:30:28;;;;;;;;;;;;;;;20.92;100.00;98388.00;5052777;28;20368;-41
2022/09/10 03:32:53;;;;;;;;;;;;;;;20.66;100.00;98388.38;5054551;28;19924;-41
2022/09/10 03:35:18;;;;;;;;;;;;;;;20.81;100.00;98383.66;5070725;28;19924;-41
2022/09/10 03:37:44;;;;;;;;;;;;;;;20.91;100.00;98381.91;5071416;28;19920;-41
2022/09/10 03:40:09;;;;;;;;;;;;;;;21.19;100.00;98376.94;5070023;28;19931;-41
2022/09/10 03:42:35;;;;;;;;;;;;;;;20.55;100.00;98384.03;5072641;28;20438;-41
2022/09/10 03:45:00;;;;;;;;;;;;;;;20.80;100.00;98385.47;5072948;28;20419;-40
2022/09/10 03:47:25;;;;;;;;;;;;;;;20.44;100.00;98387.53;5070494;28;20671;-40
2022/09/10 03:49:51;;;;;;;;;;;;;;;20.53;100.00;98382.50;5071217;28;20742;-40
2022/09/10 03:52:16;;;;;;;;;;;;;;;20.48;100.00;98394.16;5071841;28;19920;-41
2022/09/10 03:54:41;;;;;;;;;;;;;;;20.39;100.00;98405.41;5071767;28;20666;-40
2022/09/10 03:57:07;;;;;;;;;;;;;;;20.65;100.00;98405.06;5071989;28;19928;-40
2022/09/10 03:59:32;;;;;;;;;;;;;;;20.47;100.00;98407.38;5053679;28;19916;-41
2022/09/10 04:01:58;;;;;;;;;;;;;;;20.78;100.00;98410.94;5069845;28;19931;-40
2022/09/10 04:04:23;;;;;;;;;;;;;;;20.65;100.00;98399.81;5071818;28;19920;-40
2022/09/10 04:06:49;;;;;;;;;;;;;;;20.85;100.00;98408.63;5070478;28;19924;-40
2022/09/10 04:09:14;;;;;;;;;;;;;;;21.22;100.00;98403.72;5070634;28;19912;-40
2022/09/10 04:11:40;;;;;;;;;;;;;;;20.35;100.00;98411.81;5070790;28;19924;-41
2022/09/10 04:14:06;;;;;;;;;;;;;;;21.27;100.00;98412.00;5072236;28;19916;-41
2022/09/10 04:16:31;;;;;;;;;;;;;;;21.26;100.00;98399.88;5070250;28;19981;-40
2022/09/10 04:18:57;;;;;;;;;;;;;;;21.06;100.00;98409.44;5071637;28;19931;-41
2022/09/10 04:21:23;;;;;;;;;;;;;;;21.23;100.00;98415.00;5069603;28;20626;-41
2022/09/10 04:23:52;;;;;;;;;;;;;;;20.63;100.00;98406.97;5071143;28;19923;-41
2022/09/10 04:26:18;;;;;;;;;;;;;;;20.64;100.00;98417.31;5069514;28;19955;-41
2022/09/10 04:28:44;;;;;;;;;;;;;;;20.49;100.00;98410.69;5053751;28;20475;-41
2022/09/10 04:31:09;;;;;;;;;;;;;;;20.79;100.00;98404.72;5052431;28;19920;-40
2022/09/10 04:33:35;;;;;;;;;;;;;;;20.83;100.00;98413.16;5073342;28;19979;-40
2022/09/10 04:36:00;;;;;;;;;;;;;;;20.74;100.00;98404.28;5073414;28;19920;-40
2022/09/10 04:38:26;;;;;;;;;;;;;;;19.84;100.00;98428.13;5073310;28;19943;-40
2022/09/10 04:40:51;;;;;;;;;;;;;;;20.32;100.00;98426.91;5054468;28;19963;-41
2022/09/10 04:43:17;;;;;;;;;;;;;;;19.85;100.00;98429.78;5074908;28;20034;-40
2022/09/10 04:45:42;;;;;;;;;;;;;;;20.24;100.00;98427.56;5071842;28;19916;-40
2022/09/10 04:48:08;;;;;;;;;;;;;;;19.90;100.00;98429.44;5056103;28;20388;-40
2022/09/10 04:50:33;;;;;;;;;;;;;;;19.94;100.00;98421.22;5074107;28;20385;-40
2022/09/10 04:52:59;;;;;;;;;;;;;;;20.79;100.00;98416.97;5075012;28;19923;-40
2022/09/10 04:55:24;;;;;;;;;;;;;;;20.44;100.00;98429.38;5075295;28;19924;-40
2022/09/10 04:57:50;;;;;;;;;;;;;;;20.17;100.00;98429.84;5075617;28;19920;-40
2022/09/10 05:00:15;;;;;;;;;;;;;;;20.24;100.00;98432.78;5074356;28;20027;-40
2022/09/10 05:02:41;;;;;;;;;;;;;;;20.47;100.00;98423.06;5074446;28;19924;-40
2022/09/10 05:05:07;;;;;;;;;;;;;;;20.56;100.00;98418.88;5074864;28;19920;-41
2022/09/10 05:07:32;;;;;;;;;;;;;;;20.66;100.00;98425.00;5073652;28;20011;-40
2022/09/10 05:09:57;;;;;;;;;;;;;;;20.60;100.00;98410.66;5074672;28;20086;-40
2022/09/10 05:12:23;;;;;;;;;;;;;;;20.67;100.00;98418.84;5073827;28;20471;-40
2022/09/10 05:14:48;;;;;;;;;;;;;;;19.62;100.00;98434.19;5073485;28;20417;-40
2022/09/10 05:17:14;;;;;;;;;;;;;;;20.22;100.00;98430.28;5073811;28;21000;-40
2022/09/10 05:19:39;;;;;;;;;;;;;;;19.80;100.00;98429.34;5074595;28;20063;-40
2022/09/10 05:22:04;;;;;;;;;;;;;;;20.37;100.00;98436.06;5073162;28;19999;-41
2022/09/10 05:24:33;;;;;;;;;;;;;;;20.65;100.00;98425.97;5074216;28;20023;-40
2022/09/10 05:26:58;;;;;;;;;;;;;;;21.28;100.00;98411.06;5073340;28;19973;-40
2022/09/10 05:29:23;;;;;;;;;;;;;;;20.56;100.00;98426.72;5054726;28;20330;-41
2022/09/10 05:31:48;;;;;;;;;;;;;;;20.77;100.00;98424.13;5075204;28;19920;-41
2022/09/10 05:34:14;;;;;;;;;;;;;;;20.39;100.00;98420.22;5073939;28;20749;-41
2022/09/10 05:36:40;;;;;;;;;;;;;;;20.67;100.00;98431.91;5072728;28;20274;-41
2022/09/10 05:39:05;;;;;;;;;;;;;;;20.78;100.00;98431.03;5069630;28;19923;-41
2022/09/10 05:41:30;;;;;;;;;;;;;;;20.94;100.00;98430.56;5075018;28;19973;-41
2022/09/10 05:43:56;;;;;;;;;;;;;;;21.28;100.00;98424.16;5073528;28;19920;-41
2022/09/10 05:46:23;;;;;;;;;;;;;;;20.89;100.00;98425.72;5074488;28;19951;-41
2022/09/10 05:48:48;;;;;;;;;;;;;;;20.87;100.00;98436.31;5074267;28;19920;-41
2022/09/10 05:51:13;;;;;;;;;;;;;;;20.75;100.00;98434.72;5055693;28;19926;-41
2022/09/10 05:53:40;;;;;;;;;;;;;;;20.72;100.00;98427.13;5072549;28;19916;-41
2022/09/10 05:56:06;;;;;;;;;;;;;;;20.51;100.00;98441.97;5073448;28;19955;-41
2022/09/10 05:58:33;;;;;;;;;;;;;;;20.40;100.00;98442.84;5075951;28;20011;-41
2022/09/10 06:00:58;;;;;;;;;;;;;;;20.52;100.00;98441.00;5075211;28;19920;-41
2022/09/10 06:03:23;;;;;;;;;;;;;;;20.60;100.00;98446.47;5073320;28;19924;-40
2022/09/10 06:05:50;;;;;;;;;;;;;;;20.99;100.00;98439.69;5074041;28;19916;-49
2022/09/10 06:08:15;;;;;;;;;;;;;;;21.13;100.00;98440.34;5075177;28;19924;-50
2022/09/10 06:10:41;;;;;;;;;;;;;;;21.15;100.00;98447.09;5074326;28;20169;-40
2022/09/10 06:13:07;;;;;;;;;;;;;;;21.05;100.00;98448.81;5073911;28;19951;-41
2022/09/10 06:15:33;;;;;;;;;;;;;;;21.19;100.00;98445.88;5064254;28;20690;-41
2022/09/10 06:17:59;;;;;;;;;;;;;;;21.24;100.00;98442.88;5074638;28;20385;-41
2022/09/10 06:20:24;;;;;;;;;;;;;;;21.41;100.00;98449.31;5073703;28;19931;-41
2022/09/10 06:22:50;;;;;;;;;;;;;;;21.76;100.00;98448.06;5073264;28;19920;-47
2022/09/10 06:25:16;;;;;;;;;;;;;;;21.90;100.00;98455.56;5073837;28;19919;-41
2022/09/10 06:27:41;;;;;;;;;;;;;;;22.27;100.00;98452.34;5074098;28;19935;-41
2022/09/10 06:30:06;;;;;;;;;;;;;;;22.33;100.00;98459.69;5072521;28;20458;-41
2022/09/10 06:32:32;;;;;;;;;;;;;;;22.07;100.00;98460.13;5070187;28;20415;-41
2022/09/10 06:34:57;;;;;;;;;;;;;;;21.98;100.00;98453.09;5073243;28;20411;-41
2022/09/10 06:37:23;;;;;;;;;;;;;;;21.75;100.00;98457.72;5071914;28;19920;-41
2022/09/10 06:39:48;;;;;;;;;;;;;;;21.79;100.00;98466.16;5073943;28;20032;-41
2022/09/10 06:42:13;;;;;;;;;;;;;;;21.71;100.00;98465.03;5072498;28;19928;-48
2022/09/10 06:44:38;;;;;;;;;;;;;;;21.96;100.00;98470.75;5072921;28;20068;-47
2022/09/10 06:47:04;;;;;;;;;;;;;;;21.60;100.00;98478.22;5073702;28;19920;-48
2022/09/10 06:49:30;;;;;;;;;;;;;;;21.49;100.00;98473.06;5073152;28;19916;-47
2022/09/10 06:51:55;;;;;;;;;;;;;;;21.54;100.00;98476.13;5072816;28;19916;-49
2022/09/10 06:54:20;;;;;;;;;;;;;;;21.09;100.00;98477.22;5073208;28;20448;-47
2022/09/10 06:56:47;;;;;;;;;;;;;;;22.13;100.00;98472.72;5059040;28;19927;-47
2022/09/10 06:59:17;;;;;;;;;;;;;;;22.33;100.00;98472.78;5055074;28;19973;-49
2022/09/10 07:01:42;;;;;;;;;;;;;;;21.72;100.00;98477.16;5069714;28;19951;-47
2022/09/10 07:04:08;;;;;;;;;;;;;;;21.94;100.00;98477.94;5073788;28;19916;-48
2022/09/10 07:06:34;;;;;;;;;;;;;;;22.32;100.00;98476.38;5074391;28;19919;-47
2022/09/10 07:08:59;;;;;;;;;;;;;;;22.20;100.00;98472.19;5074783;28;19912;-46
2022/09/10 07:11:25;;;;;;;;;;;;;;;22.41;100.00;98470.28;5056328;28;19920;-47
2022/09/10 07:13:53;;;;;;;;;;;;;;;22.53;100.00;98468.34;5054524;28;19946;-47
2022/09/10 07:16:22;;;;;;;;;;;;;;;22.26;100.00;98471.66;5053838;28;20018;-48
2022/09/10 07:18:51;;;;;;;;;;;;;;;22.27;100.00;98473.31;5075170;28;19927;-48
2022/09/10 07:21:17;;;;;;;;;;;;;;;22.33;100.00;98467.53;5073332;28;19959;-49
2022/09/10 07:23:43;;;;;;;;;;;;;;;22.16;100.00;98474.25;5074643;28;20061;-48
2022/09/10 07:26:11;;;;;;;;;;;;;;;21.81;100.00;98472.09;5070387;28;19923;-47
2022/09/10 07:28:37;;;;;;;;;;;;;;;22.75;100.00;98475.13;5073480;28;19924;-48
2022/09/10 07:31:10;;;;;;;;;;;;;;;22.18;100.00;98479.34;5072056;28;20270;-49
2022/09/10 07:33:35;;;;;;;;;;;;;;;22.14;100.00;98482.22;5072643;28;19925;-47
2022/09/10 07:36:00;;;;;;;;;;;;;;;21.73;100.00;98480.59;5073106;28;19938;-47
2022/09/10 07:38:27;;;;;;;;;;;;;;;21.93;100.00;98482.31;5072802;28;19960;-48
2022/09/10 07:40:52;;;;;;;;;;;;;;;22.14;100.00;98484.03;5072568;28;20677;-48
2022/09/10 07:43:18;;;;;;;;;;;;;;;22.36;100.00;98483.00;5072637;28;20022;-48
2022/09/10 07:45:43;;;;;;;;;;;;;;;22.61;100.00;98488.69;5072399;28;20061;-51
2022/09/10 07:48:09;;;;;;;;;;;;;;;22.60;100.00;98479.97;5073347;28;20022;-50
2022/09/10 07:50:35;;;;;;;;;;;;;;;22.29;100.00;98493.22;5073553;28;20022;-51
2022/09/10 07:53:00;;;;;;;;;;;;;;;22.38;100.00;98496.81;5064590;28;19923;-49
2022/09/10 07:55:25;;;;;;;;;;;;;;;22.98;100.00;98494.03;5070794;28;19921;-48
2022/09/10 07:57:50;;;;;;;;;;;;;;;23.14;100.00;98493.50;5068338;28;20432;-49
2022/09/10 08:00:17;;;;;;;;;;;;;;;22.71;100.00;98502.63;5072695;28;19975;-50
2022/09/10 08:02:43;;;;;;;;;;;;;;;22.90;100.00;98500.00;5072449;28;19963;-50
2022/09/10 08:05:09;;;;;;;;;;;;;;;22.91;100.00;98504.28;5072757;28;20095;-50
2022/09/10 08:07:35;;;;;;;;;;;;;;;22.93;100.00;98504.97;5065744;28;20566;-51
2022/09/10 08:10:00;;;;;;;;;;;;;;;23.77;100.00;98501.63;5046461;28;20011;-51
2022/09/10 08:12:25;;;;;;;;;;;;;;;23.14;100.00;98504.81;5072929;28;20371;-51
2022/09/10 08:14:51;;;;;;;;;;;;;;;23.04;100.00;98508.47;5070265;28;20667;-50
2022/09/10 08:17:16;;;;;;;;;;;;;;;23.26;100.00;98505.47;5070491;28;20345;-50
2022/09/10 08:19:41;;;;;;;;;;;;;;;23.53;100.00;98504.72;5071010;28;19927;-48
2022/09/10 08:22:07;;;;;;;;;;;;;;;23.06;100.00;98507.34;5073264;28;19920;-50
2022/09/10 08:24:32;;;;;;;;;;;;;;;23.58;100.00;98506.91;5068865;28;20035;-48
2022/09/10 08:26:57;;;;;;;;;;;;;;;23.83;100.00;98505.47;5072065;28;20365;-48
2022/09/10 08:29:23;;;;;;;;;;;;;;;23.04;100.00;98516.34;5072275;28;20571;-48
2022/09/10 08:31:48;;;;;;;;;;;;;;;22.57;100.00;98519.63;5073840;28;19912;-48
2022/09/10 08:34:13;;;;;;;;;;;;;;;23.32;100.00;98523.31;5072310;28;19927;-49
2022/09/10 08:36:38;;;;;;;;;;;;;;;23.14;100.00;98519.75;5072319;28;20586;-48
2022/09/10 08:39:04;;;;;;;;;;;;;;;23.15;100.00;98526.69;5071796;28;19924;-48
2022/09/10 08:41:38;;;;;;;;;;;;;;;23.63;100.00;98527.50;5055011;28;20583;-50
2022/09/10 08:44:22;;;;;;;;;;;;;;;24.07;100.00;98515.47;5072581;28;20311;-50
2022/09/10 08:47:03;;;;;;;;;;;;;;;23.47;100.00;98525.50;5072053;28;20404;-48
2022/09/10 08:49:43;;;;;;;;;;;;;;;24.35;100.00;98520.69;5069942;28;19996;-48
2022/09/10 08:52:09;;;;;;;;;;;;;;;24.29;100.00;98521.28;5071648;28;20262;-48
2022/09/10 08:54:40;;;;;;;;;;;;;;;24.01;100.00;98516.03;5072179;28;19928;-50
2022/09/10 08:57:06;;;;;;;;;;;;;;;23.99;100.00;98516.22;5049559;28;20389;-49
2022/09/10 08:59:39;;;;;;;;;;;;;;;24.13;100.00;98517.50;5068849;28;19927;-48
2022/09/10 09:02:23;;;;;;;;;;;;;;;23.61;100.00;98527.69;5053231;28;19963;-47
2022/09/10 09:04:48;;;;;;;;;;;;;;;23.59;100.00;98513.84;5072840;28;19920;-49
2022/09/10 09:07:14;;;;;;;;;;;;;;;23.61;100.00;98525.06;5070377;28;19955;-50
2022/09/10 09:09:39;;;;;;;;;;;;;;;23.17;100.00;98532.59;5070677;28;19983;-50
2022/09/10 09:12:13;;;;;;;;;;;;;;;23.35;100.00;98522.19;5070074;28;19923;-50
2022/09/10 09:14:44;;;;;;;;;;;;;;;23.22;100.00;98532.19;5054089;28;20301;-51
2022/09/10 09:17:19;;;;;;;;;;;;;;;23.33;100.00;98535.50;5069746;28;19916;-48
2022/09/10 09:19:44;;;;;;;;;;;;;;;22.64;100.00;98533.03;5069025;28;20058;-48
2022/09/10 09:22:15;;;;;;;;;;;;;;;23.27;100.00;98536.06;5073629;28;19930;-49
2022/09/10 09:24:43;;;;;;;;;;;;;;;23.64;100.00;98519.50;5074932;28;20296;-47
2022/09/10 09:27:15;;;;;;;;;;;;;;;23.58;100.00;98523.53;5070555;28;19924;-48
2022/09/10 09:29:49;;;;;;;;;;;;;;;23.97;100.00;98522.56;5073144;28;19943;-48
2022/09/10 09:32:15;;;;;;;;;;;;;;;24.11;100.00;98514.19;5054429;28;19924;-47
2022/09/10 09:34:49;;;;;;;;;;;;;;;23.93;100.00;98522.03;5046050;28;19920;-46
2022/09/10 09:37:24;;;;;;;;;;;;;;;23.95;100.00;98520.09;5055829;28;20015;-47
2022/09/10 09:40:05;;;;;;;;;;;;;;;23.66;100.00;98517.56;5054089;28;19919;-46
2022/09/10 09:42:44;;;;;;;;;;;;;;;22.00;100.00;98529.81;5074762;28;20385;-47
2022/09/10 09:45:33;;;;;;;;;;;;;;;24.17;100.00;98521.47;5057497;28;19916;-50
2022/09/10 09:47:58;;;;;;;;;;;;;;;24.69;100.00;98513.00;5054033;28;20042;-48
2022/09/10 09:50:24;;;;;;;;;;;;;;;25.28;100.00;98515.13;5052789;28;19920;-49
2022/09/10 09:52:51;;;;;;;;;;;;;;;24.67;100.00;98520.22;5072917;28;19920;-47
2022/09/10 09:55:22;;;;;;;;;;;;;;;24.51;100.00;98526.16;5071412;28;20011;-49
2022/09/10 09:57:47;;;;;;;;;;;;;;;24.86;100.00;98524.50;5055182;28;19935;-48
2022/09/10 10:00:32;;;;;;;;;;;;;;;24.16;100.00;98521.66;5055007;28;19931;-48
2022/09/10 10:03:03;;;;;;;;;;;;;;;24.93;100.00;98516.81;5074345;28;20645;-49
2022/09/10 10:05:28;;;;;;;;;;;;;;;25.26;100.00;98510.00;5074585;28;20280;-50
2022/09/10 10:07:54;;;;;;;;;;;;;;;25.73;100.00;98512.25;5072304;28;19924;-47
2022/09/10 10:10:23;;;;;;;;;;;;;;;26.02;100.00;98511.06;5055913;28;19998;-49
2022/09/10 10:12:48;;;;;;;;;;;;;;;25.44;100.00;98502.88;5054631;28;20407;-50
2022/09/10 10:15:36;;;;;;;;;;;;;;;25.46;100.00;98508.81;5054666;28;19919;-47
2022/09/10 10:18:23;;;;;;;;;;;;;;;25.02;100.00;98507.97;5072026;28;20011;-48
2022/09/10 10:20:48;;;;;;;;;;;;;;;25.79;100.00;98506.34;5059287;28;20841;-48
2022/09/10 10:23:35;;;;;;;;;;;;;;;25.62;100.00;98500.16;5072951;28;19984;-47
2022/09/10 10:26:04;;;;;;;;;;;;;;;26.11;100.00;98504.84;5072139;28;19963;-49
2022/09/10 10:28:29;;;;;;;;;;;;;;;26.04;100.00;98493.28;5054988;28;19935;-49
2022/09/10 10:30:55;;;;;;;;;;;;;;;25.28;100.00;98494.88;5055328;28;20820;-47
2022/09/10 10:33:30;;;;;;;;;;;;;;;25.69;100.00;98489.81;5073720;28;20376;-49
2022/09/10 10:36:10;;;;;;;;;;;;;;;25.39;100.00;98505.16;5073582;28;19923;-48
2022/09/10 10:38:36;;;;;;;;;;;;;;;25.83;100.00;98497.13;5074528;28;20088;-46
2022/09/10 10:41:06;;;;;;;;;;;;;;;25.99;100.00;98498.22;5056422;28;19920;-49
2022/09/10 10:43:50;;;;;;;;;;;;;;;25.11;100.00;98506.25;5068149;28;19920;-47
2022/09/10 10:46:17;;;;;;;;;;;;;;;25.46;100.00;98495.63;5070615;28;19931;-49
2022/09/10 10:49:01;;;;;;;;;;;;;;;26.41;100.00;98492.88;5042611;28;19924;-50
2022/09/10 10:51:44;;;;;;;;;;;;;;;25.92;100.00;98494.56;5045981;28;19942;-49
2022/09/10 10:54:28;;;;;;;;;;;;;;;25.60;100.00;98506.59;5067911;28;20035;-49
2022/09/10 10:56:58;;;;;;;;;;;;;;;26.27;100.00;98499.63;5066270;28;19916;-47
2022/09/10 10:59:25;;;;;;;;;;;;;;;26.32;100.00;98500.94;5048303;28;19920;-48
2022/09/10 11:01:55;;;;;;;;;;;;;;;25.92;100.00;98505.13;5073052;28;19927;-50
2022/09/10 11:04:21;;;;;;;;;;;;;;;26.25;100.00;98501.59;5053503;28;20567;-48
2022/09/10 11:06:49;;;;;;;;;;;;;;;26.42;100.00;98501.63;5055405;28;19923;-50
2022/09/10 11:09:17;;;;;;;;;;;;;;;26.58;100.00;98501.69;5056221;28;19920;-49
2022/09/10 11:12:00;;;;;;;;;;;;;;;25.89;100.00;98501.00;5043745;28;19916;-46
2022/09/10 11:14:44;;;;;;;;;;;;;;;25.66;100.00;98498.06;5052279;28;20021;-50
2022/09/10 11:17:33;;;;;;;;;;;;;;;25.92;100.00;98491.94;5064627;28;19920;-46
2022/09/10 11:20:02;;;;;;;;;;;;;;;26.17;100.00;98498.94;5062643;28;19919;-48
2022/09/10 11:22:29;;;;;;;;;;;;;;;25.59;100.00;98495.22;5054207;28;19926;-48
2022/09/10 11:25:27;;;;;;;;;;;;;;;26.05;100.00;98487.03;5052825;28;20028;-49
2022/09/10 11:28:13;;;;;;;;;;;;;;;25.38;100.00;98492.13;5026617;28;19923;-50
2022/09/10 11:30:39;;;;;;;;;;;;;;;26.15;100.00;98490.34;5071820;28;20022;-49
2022/09/10 11:33:16;;;;;;;;;;;;;;;25.66;100.00;98496.25;5054712;28;19985;-46
2022/09/10 11:35:42;;;;;;;;;;;;;;;26.05;100.00;98489.66;5051802;28;19920;-50
2022/09/10 11:38:19;;;;;;;;;;;;;;;26.51;100.00;98490.09;5054862;28;19916;-48
2022/09/10 11:41:03;;;;;;;;;;;;;;;26.38;100.00;98489.72;5054513;28;20392;-50
2022/09/10 11:43:36;;;;;;;;;;;;;;;25.73;100.00;98491.16;5072913;28;19927;-48
2022/09/10 11:46:01;;;;;;;;;;;;;;;26.31;100.00;98494.84;5070712;28;20504;-49
2022/09/10 11:48:31;;;;;;;;;;;;;;;26.08;100.00;98489.34;5054223;28;19916;-48
2022/09/10 11:51:00;;;;;;;;;;;;;;;25.84;100.00;98497.94;5051500;28;20018;-47
2022/09/10 11:53:26;;;;;;;;;;;;;;;26.29;100.00;98497.63;5071114;28;19927;-48
2022/09/10 11:56:11;;;;;;;;;;;;;;;26.18;100.00;98489.19;5071807;28;19920;-47
2022/09/10 11:58:39;;;;;;;;;;;;;;;26.34;100.00;98491.84;5071316;28;19986;-48
2022/09/10 12:01:27;;;;;;;;;;;;;;;25.61;100.00;98495.03;5072914;28;19927;-47
2022/09/10 12:03:55;;;;;;;;;;;;;;;24.79;100.00;98494.47;5023133;28;20034;-47
2022/09/10 12:06:25;;;;;;;;;;;;;;;24.81;100.00;98495.16;5070532;28;19916;-47
2022/09/10 12:09:02;;;;;;;;;;;;;;;24.84;100.00;98489.59;5071428;28;19920;-47
2022/09/10 12:11:36;;;;;;;;;;;;;;;25.16;100.00;98488.19;5071360;28;20018;-48
2022/09/10 12:14:12;;;;;;;;;;;;;;;25.24;100.00;98485.63;5071731;28;19920;-48
2022/09/10 12:16:37;;;;;;;;;;;;;;;25.10;100.00;98484.34;5053280;28;19916;-47
2022/09/10 12:19:04;;;;;;;;;;;;;;;24.15;100.00;98491.03;5072733;28;19922;-48
2022/09/10 12:21:31;;;;;;;;;;;;;;;24.93;100.00;98493.94;5071829;28;19920;-47
2022/09/10 12:23:57;;;;;;;;;;;;;;;25.52;100.00;98494.19;5052703;28;19920;-49
2022/09/10 12:26:22;;;;;;;;;;;;;;;25.56;100.00;98489.44;5053450;28;19923;-46
2022/09/10 12:28:48;;;;;;;;;;;;;;;24.95;100.00;98496.41;5054760;28;20871;-48
2022/09/10 12:31:16;;;;;;;;;;;;;;;25.49;100.00;98493.66;5072691;28;19916;-47
2022/09/10 12:33:44;;;;;;;;;;;;;;;25.18;100.00;98492.34;5071449;28;20400;-47
2022/09/10 12:36:30;;;;;;;;;;;;;;;25.15;100.00;98491.78;5072520;28;19923;-47
2022/09/10 12:39:18;;;;;;;;;;;;;;;24.17;100.00;98492.53;5030277;28;19920;-49
2022/09/10 12:41:44;;;;;;;;;;;;;;;24.39;100.00;98493.09;5072349;28;19924;-48